sensor_id;sensor_type;location;lat;lon;timestamp;temperature;humidity
45849;DHT22;31567;54.600;9.842;2023-11-19T00:02:31;6.30;99.90
45849;DHT22;31567;54.600;9.842;2023-11-19T00:06:11;6.40;99.90
45849;DHT22;31567;54.600;9.842;2023-11-19T00:09:51;6.40;99.90
45849;DHT22;31567;54.600;9.842;2023-11-19T00:13:30;6.40;99.90
45849;DHT22;31567;54.600;9.842;2023-11-19T00:17:10;6.40;99.90
45849;DHT22;31567;54.600;9.842;2023-11-19T00:20:50;6.40;99.90
45849;DHT22;31567;54.600;9.842;2023-11-19T00:24:30;6.40;99.90
45849;DHT22;31567;54.600;9.842;2023-11-19T00:28:09;6.40;99.90
45849;DHT22;31567;54.600;9.842;2023-11-19T00:31:49;6.40;99.90
45849;DHT22;31567;54.600;9.842;2023-11-19T00:35:28;6.40;99.90
45849;DHT22;31567;54.600;9.842;2023-11-19T00:39:08;6.40;99.90
45849;DHT22;31567;54.600;9.842;2023-11-19T00:42:48;6.40;99.90
45849;DHT22;31567;54.600;9.842;2023-11-19T00:46:27;6.40;99.90
45849;DHT22;31567;54.600;9.842;2023-11-19T00:50:07;6.40;99.90
45849;DHT22;31567;54.600;9.842;2023-11-19T00:53:49;6.40;99.90
45849;DHT22;31567;54.600;9.842;2023-11-19T00:57:28;6.40;99.90
45849;DHT22;31567;54.600;9.842;2023-11-19T01:01:08;6.40;99.90
45849;DHT22;31567;54.600;9.842;2023-11-19T01:04:47;6.40;99.90
45849;DHT22;31567;54.600;9.842;2023-11-19T01:08:27;6.40;99.90
45849;DHT22;31567;54.600;9.842;2023-11-19T01:12:07;6.40;99.90
45849;DHT22;31567;54.600;9.842;2023-11-19T01:15:46;6.40;99.90
45849;DHT22;31567;54.600;9.842;2023-11-19T01:19:27;6.40;99.90
45849;DHT22;31567;54.600;9.842;2023-11-19T01:23:07;6.40;99.90
45849;DHT22;31567;54.600;9.842;2023-11-19T01:26:47;6.40;99.90
45849;DHT22;31567;54.600;9.842;2023-11-19T01:30:26;6.40;99.90
45849;DHT22;31567;54.600;9.842;2023-11-19T01:34:06;6.40;99.90
45849;DHT22;31567;54.600;9.842;2023-11-19T01:37:46;6.50;99.90
45849;DHT22;31567;54.600;9.842;2023-11-19T01:41:25;6.50;99.90
45849;DHT22;31567;54.600;9.842;2023-11-19T01:45:05;6.50;99.90
45849;DHT22;31567;54.600;9.842;2023-11-19T01:48:49;6.50;99.90
45849;DHT22;31567;54.600;9.842;2023-11-19T01:52:29;6.50;99.90
45849;DHT22;31567;54.600;9.842;2023-11-19T01:56:09;6.50;99.90
45849;DHT22;31567;54.600;9.842;2023-11-19T01:59:50;6.60;99.90
45849;DHT22;31567;54.600;9.842;2023-11-19T02:03:31;6.60;99.90
45849;DHT22;31567;54.600;9.842;2023-11-19T02:07:12;6.50;99.90
45849;DHT22;31567;54.600;9.842;2023-11-19T02:10:53;6.60;99.90
45849;DHT22;31567;54.600;9.842;2023-11-19T02:14:36;6.60;99.90
45849;DHT22;31567;54.600;9.842;2023-11-19T02:18:24;6.60;99.90
45849;DHT22;31567;54.600;9.842;2023-11-19T02:22:06;6.60;99.90
45849;DHT22;31567;54.600;9.842;2023-11-19T02:26:22;6.60;99.90
45849;DHT22;31567;54.600;9.842;2023-11-19T02:30:04;6.60;99.90
45849;DHT22;31567;54.600;9.842;2023-11-19T02:33:47;6.60;99.90
45849;DHT22;31567;54.600;9.842;2023-11-19T02:37:29;6.60;99.90
45849;DHT22;31567;54.600;9.842;2023-11-19T02:41:09;6.70;99.90
45849;DHT22;31567;54.600;9.842;2023-11-19T02:44:49;6.60;99.90
45849;DHT22;31567;54.600;9.842;2023-11-19T02:48:28;6.70;99.90
45849;DHT22;31567;54.600;9.842;2023-11-19T02:52:08;6.70;99.90
45849;DHT22;31567;54.600;9.842;2023-11-19T02:55:49;6.70;99.90
45849;DHT22;31567;54.600;9.842;2023-11-19T02:59:29;6.60;99.90
45849;DHT22;31567;54.600;9.842;2023-11-19T03:03:18;6.70;99.90
45849;DHT22;31567;54.600;9.842;2023-11-19T03:07:00;6.70;99.90
45849;DHT22;31567;54.600;9.842;2023-11-19T03:10:41;6.70;99.90
45849;DHT22;31567;54.600;9.842;2023-11-19T03:14:20;6.70;99.90
45849;DHT22;31567;54.600;9.842;2023-11-19T03:18:02;6.70;99.90
45849;DHT22;31567;54.600;9.842;2023-11-19T03:21:41;6.70;99.90
45849;DHT22;31567;54.600;9.842;2023-11-19T03:25:21;6.70;99.90
45849;DHT22;31567;54.600;9.842;2023-11-19T03:29:01;6.70;99.90
45849;DHT22;31567;54.600;9.842;2023-11-19T03:32:40;6.70;99.90
45849;DHT22;31567;54.600;9.842;2023-11-19T03:36:20;6.70;99.90
45849;DHT22;31567;54.600;9.842;2023-11-19T03:40:00;6.70;99.90
45849;DHT22;31567;54.600;9.842;2023-11-19T03:43:40;6.70;99.90
45849;DHT22;31567;54.600;9.842;2023-11-19T03:47:20;6.70;99.90
45849;DHT22;31567;54.600;9.842;2023-11-19T03:51:00;6.70;99.90
45849;DHT22;31567;54.600;9.842;2023-11-19T03:54:39;6.80;99.90
45849;DHT22;31567;54.600;9.842;2023-11-19T03:58:19;6.80;99.90
45849;DHT22;31567;54.600;9.842;2023-11-19T04:01:58;6.80;99.90
45849;DHT22;31567;54.600;9.842;2023-11-19T04:05:39;6.80;99.90
45849;DHT22;31567;54.600;9.842;2023-11-19T04:09:19;6.90;99.90
45849;DHT22;31567;54.600;9.842;2023-11-19T04:12:58;6.90;99.90
45849;DHT22;31567;54.600;9.842;2023-11-19T04:16:38;6.90;99.90
45849;DHT22;31567;54.600;9.842;2023-11-19T04:20:18;6.90;99.90
45849;DHT22;31567;54.600;9.842;2023-11-19T04:23:58;6.90;99.90
45849;DHT22;31567;54.600;9.842;2023-11-19T04:27:37;6.90;99.90
45849;DHT22;31567;54.600;9.842;2023-11-19T04:31:17;6.90;99.90
45849;DHT22;31567;54.600;9.842;2023-11-19T04:34:56;6.90;99.90
45849;DHT22;31567;54.600;9.842;2023-11-19T04:38:36;6.90;99.90
45849;DHT22;31567;54.600;9.842;2023-11-19T04:42:17;6.90;99.90
45849;DHT22;31567;54.600;9.842;2023-11-19T04:45:57;6.90;99.90
45849;DHT22;31567;54.600;9.842;2023-11-19T04:49:40;7.00;99.90
45849;DHT22;31567;54.600;9.842;2023-11-19T04:53:22;6.90;99.90
45849;DHT22;31567;54.600;9.842;2023-11-19T04:57:01;7.00;99.90
45849;DHT22;31567;54.600;9.842;2023-11-19T05:00:41;6.90;99.90
45849;DHT22;31567;54.600;9.842;2023-11-19T05:04:20;6.90;99.90
45849;DHT22;31567;54.600;9.842;2023-11-19T05:08:00;6.90;99.90
45849;DHT22;31567;54.600;9.842;2023-11-19T05:11:40;7.00;99.90
45849;DHT22;31567;54.600;9.842;2023-11-19T05:15:20;7.00;99.90
45849;DHT22;31567;54.600;9.842;2023-11-19T05:18:59;7.00;99.90
45849;DHT22;31567;54.600;9.842;2023-11-19T05:22:40;7.10;99.90
45849;DHT22;31567;54.600;9.842;2023-11-19T05:26:21;7.10;99.90
45849;DHT22;31567;54.600;9.842;2023-11-19T05:30:02;7.10;99.90
45849;DHT22;31567;54.600;9.842;2023-11-19T05:33:41;7.10;99.90
45849;DHT22;31567;54.600;9.842;2023-11-19T05:37:21;7.10;99.90
45849;DHT22;31567;54.600;9.842;2023-11-19T05:41:01;7.20;99.90
45849;DHT22;31567;54.600;9.842;2023-11-19T05:44:40;7.10;99.90
45849;DHT22;31567;54.600;9.842;2023-11-19T05:48:20;7.10;99.90
45849;DHT22;31567;54.600;9.842;2023-11-19T05:51:59;7.20;99.90
45849;DHT22;31567;54.600;9.842;2023-11-19T05:55:41;7.20;99.90
45849;DHT22;31567;54.600;9.842;2023-11-19T05:59:28;7.30;99.90
45849;DHT22;31567;54.600;9.842;2023-11-19T06:03:09;7.30;99.90
45849;DHT22;31567;54.600;9.842;2023-11-19T06:06:48;7.30;99.90
45849;DHT22;31567;54.600;9.842;2023-11-19T06:10:28;7.40;99.90
45849;DHT22;31567;54.600;9.842;2023-11-19T06:14:10;7.40;99.90
45849;DHT22;31567;54.600;9.842;2023-11-19T06:17:50;7.40;99.90
45849;DHT22;31567;54.600;9.842;2023-11-19T06:21:30;7.50;99.90
45849;DHT22;31567;54.600;9.842;2023-11-19T06:25:09;7.60;99.90
45849;DHT22;31567;54.600;9.842;2023-11-19T06:28:50;7.60;99.90
45849;DHT22;31567;54.600;9.842;2023-11-19T06:32:30;7.70;99.90
45849;DHT22;31567;54.600;9.842;2023-11-19T06:36:09;7.80;99.90
45849;DHT22;31567;54.600;9.842;2023-11-19T06:39:49;7.80;99.90
45849;DHT22;31567;54.600;9.842;2023-11-19T06:43:28;7.90;99.90
45849;DHT22;31567;54.600;9.842;2023-11-19T06:47:08;8.00;99.90
45849;DHT22;31567;54.600;9.842;2023-11-19T06:50:47;8.00;99.90
45849;DHT22;31567;54.600;9.842;2023-11-19T06:54:27;8.10;99.90
45849;DHT22;31567;54.600;9.842;2023-11-19T06:58:07;8.20;99.90
45849;DHT22;31567;54.600;9.842;2023-11-19T07:01:46;8.30;99.90
45849;DHT22;31567;54.600;9.842;2023-11-19T07:05:26;8.40;99.90
45849;DHT22;31567;54.600;9.842;2023-11-19T07:09:06;8.50;99.90
45849;DHT22;31567;54.600;9.842;2023-11-19T07:12:48;8.60;99.90
45849;DHT22;31567;54.600;9.842;2023-11-19T07:16:29;8.60;99.90
45849;DHT22;31567;54.600;9.842;2023-11-19T07:20:09;8.70;99.90
45849;DHT22;31567;54.600;9.842;2023-11-19T07:23:52;8.70;99.90
45849;DHT22;31567;54.600;9.842;2023-11-19T07:27:32;8.80;99.90
45849;DHT22;31567;54.600;9.842;2023-11-19T07:31:13;8.90;99.90
45849;DHT22;31567;54.600;9.842;2023-11-19T07:34:52;8.90;99.90
45849;DHT22;31567;54.600;9.842;2023-11-19T07:38:32;9.00;99.90
45849;DHT22;31567;54.600;9.842;2023-11-19T07:42:11;9.10;99.90
45849;DHT22;31567;54.600;9.842;2023-11-19T07:45:51;9.10;99.90
45849;DHT22;31567;54.600;9.842;2023-11-19T07:49:31;9.20;99.90
45849;DHT22;31567;54.600;9.842;2023-11-19T07:53:10;9.30;99.90
45849;DHT22;31567;54.600;9.842;2023-11-19T07:56:51;9.30;99.90
45849;DHT22;31567;54.600;9.842;2023-11-19T08:00:31;9.30;99.90
45849;DHT22;31567;54.600;9.842;2023-11-19T08:04:11;9.40;99.90
45849;DHT22;31567;54.600;9.842;2023-11-19T08:07:50;9.50;99.90
45849;DHT22;31567;54.600;9.842;2023-11-19T08:11:32;9.50;99.90
45849;DHT22;31567;54.600;9.842;2023-11-19T08:15:12;9.60;99.90
45849;DHT22;31567;54.600;9.842;2023-11-19T08:18:52;9.70;99.90
45849;DHT22;31567;54.600;9.842;2023-11-19T08:22:32;9.70;99.90
45849;DHT22;31567;54.600;9.842;2023-11-19T08:26:11;9.80;99.90
45849;DHT22;31567;54.600;9.842;2023-11-19T08:29:51;9.90;99.90
45849;DHT22;31567;54.600;9.842;2023-11-19T08:33:31;9.90;99.90
45849;DHT22;31567;54.600;9.842;2023-11-19T08:37:11;10.00;99.90
45849;DHT22;31567;54.600;9.842;2023-11-19T08:40:51;10.10;99.90
45849;DHT22;31567;54.600;9.842;2023-11-19T08:44:31;10.20;99.90
45849;DHT22;31567;54.600;9.842;2023-11-19T08:48:11;10.30;99.90
45849;DHT22;31567;54.600;9.842;2023-11-19T08:51:50;10.30;99.90
45849;DHT22;31567;54.600;9.842;2023-11-19T08:55:30;10.40;99.90
45849;DHT22;31567;54.600;9.842;2023-11-19T08:59:11;10.50;99.90
45849;DHT22;31567;54.600;9.842;2023-11-19T09:02:50;10.60;99.90
45849;DHT22;31567;54.600;9.842;2023-11-19T09:06:30;10.70;99.90
45849;DHT22;31567;54.600;9.842;2023-11-19T09:10:09;10.70;99.90
45849;DHT22;31567;54.600;9.842;2023-11-19T09:13:50;10.90;99.90
45849;DHT22;31567;54.600;9.842;2023-11-19T09:17:30;11.00;99.90
45849;DHT22;31567;54.600;9.842;2023-11-19T09:21:12;11.10;99.90
45849;DHT22;31567;54.600;9.842;2023-11-19T09:24:52;11.20;99.90
45849;DHT22;31567;54.600;9.842;2023-11-19T09:28:32;11.30;99.90
45849;DHT22;31567;54.600;9.842;2023-11-19T09:32:11;11.30;99.90
45849;DHT22;31567;54.600;9.842;2023-11-19T09:35:51;11.40;99.90
45849;DHT22;31567;54.600;9.842;2023-11-19T09:39:30;11.50;99.90
45849;DHT22;31567;54.600;9.842;2023-11-19T09:43:10;11.50;99.90
45849;DHT22;31567;54.600;9.842;2023-11-19T09:46:50;11.50;99.90
45849;DHT22;31567;54.600;9.842;2023-11-19T09:50:31;11.60;99.90
45849;DHT22;31567;54.600;9.842;2023-11-19T09:54:11;11.70;99.90
45849;DHT22;31567;54.600;9.842;2023-11-19T09:57:52;11.80;99.90
45849;DHT22;31567;54.600;9.842;2023-11-19T10:01:33;11.90;99.90
45849;DHT22;31567;54.600;9.842;2023-11-19T10:05:13;12.00;99.90
45849;DHT22;31567;54.600;9.842;2023-11-19T10:08:54;12.10;99.90
45849;DHT22;31567;54.600;9.842;2023-11-19T10:12:34;12.20;99.90
45849;DHT22;31567;54.600;9.842;2023-11-19T10:16:14;12.30;99.90
45849;DHT22;31567;54.600;9.842;2023-11-19T10:19:54;12.40;99.90
45849;DHT22;31567;54.600;9.842;2023-11-19T10:23:54;12.40;99.90
45849;DHT22;31567;54.600;9.842;2023-11-19T10:27:34;12.50;99.90
45849;DHT22;31567;54.600;9.842;2023-11-19T10:31:14;12.60;99.90
45849;DHT22;31567;54.600;9.842;2023-11-19T10:35:06;12.70;99.90
45849;DHT22;31567;54.600;9.842;2023-11-19T10:38:56;12.70;99.90
45849;DHT22;31567;54.600;9.842;2023-11-19T10:42:36;12.80;99.90
45849;DHT22;31567;54.600;9.842;2023-11-19T10:46:16;12.70;99.90
45849;DHT22;31567;54.600;9.842;2023-11-19T10:50:00;12.80;99.90
45849;DHT22;31567;54.600;9.842;2023-11-19T10:53:40;12.90;99.90
45849;DHT22;31567;54.600;9.842;2023-11-19T10:57:26;12.90;99.90
45849;DHT22;31567;54.600;9.842;2023-11-19T11:01:20;12.90;99.90
45849;DHT22;31567;54.600;9.842;2023-11-19T11:05:04;12.90;99.90
45849;DHT22;31567;54.600;9.842;2023-11-19T11:08:45;12.90;99.90
45849;DHT22;31567;54.600;9.842;2023-11-19T11:12:25;13.00;99.90
45849;DHT22;31567;54.600;9.842;2023-11-19T11:16:05;13.10;99.90
45849;DHT22;31567;54.600;9.842;2023-11-19T11:19:47;13.10;99.90
45849;DHT22;31567;54.600;9.842;2023-11-19T11:24:10;13.10;99.90
45849;DHT22;31567;54.600;9.842;2023-11-19T11:27:54;13.20;99.90
45849;DHT22;31567;54.600;9.842;2023-11-19T11:35:49;13.20;99.90
45849;DHT22;31567;54.600;9.842;2023-11-19T11:39:30;13.20;99.90
45849;DHT22;31567;54.600;9.842;2023-11-19T11:43:44;13.20;99.90
45849;DHT22;31567;54.600;9.842;2023-11-19T11:47:24;13.20;99.90
45849;DHT22;31567;54.600;9.842;2023-11-19T11:51:04;13.30;99.90
45849;DHT22;31567;54.600;9.842;2023-11-19T11:54:44;13.40;99.90
45849;DHT22;31567;54.600;9.842;2023-11-19T11:58:29;13.30;99.90
45849;DHT22;31567;54.600;9.842;2023-11-19T12:02:17;13.30;99.90
45849;DHT22;31567;54.600;9.842;2023-11-19T12:05:57;13.30;99.90
45849;DHT22;31567;54.600;9.842;2023-11-19T12:09:46;13.30;99.90
45849;DHT22;31567;54.600;9.842;2023-11-19T12:13:55;13.30;99.90
45849;DHT22;31567;54.600;9.842;2023-11-19T12:17:41;13.40;99.90
45849;DHT22;31567;54.600;9.842;2023-11-19T12:21:30;13.50;99.90
45849;DHT22;31567;54.600;9.842;2023-11-19T12:25:11;13.50;99.90
45849;DHT22;31567;54.600;9.842;2023-11-19T12:28:58;13.50;99.90
45849;DHT22;31567;54.600;9.842;2023-11-19T12:32:45;13.50;99.90
45849;DHT22;31567;54.600;9.842;2023-11-19T12:36:24;13.40;99.90
45849;DHT22;31567;54.600;9.842;2023-11-19T12:40:11;13.40;99.90
45849;DHT22;31567;54.600;9.842;2023-11-19T12:43:52;13.40;99.90
45849;DHT22;31567;54.600;9.842;2023-11-19T12:47:31;13.40;99.90
45849;DHT22;31567;54.600;9.842;2023-11-19T12:51:12;13.40;99.90
45849;DHT22;31567;54.600;9.842;2023-11-19T12:54:51;13.40;99.90
45849;DHT22;31567;54.600;9.842;2023-11-19T12:58:32;13.40;99.90
45849;DHT22;31567;54.600;9.842;2023-11-19T13:02:11;13.40;99.90
45849;DHT22;31567;54.600;9.842;2023-11-19T13:06:01;13.40;99.90
45849;DHT22;31567;54.600;9.842;2023-11-19T13:09:41;13.40;99.90
45849;DHT22;31567;54.600;9.842;2023-11-19T13:13:21;13.40;99.90
45849;DHT22;31567;54.600;9.842;2023-11-19T13:17:00;13.40;99.90
45849;DHT22;31567;54.600;9.842;2023-11-19T13:20:40;13.30;99.90
45849;DHT22;31567;54.600;9.842;2023-11-19T13:24:20;13.30;99.90
45849;DHT22;31567;54.600;9.842;2023-11-19T13:28:00;13.30;99.90
45849;DHT22;31567;54.600;9.842;2023-11-19T13:31:39;13.30;99.90
45849;DHT22;31567;54.600;9.842;2023-11-19T13:35:19;13.20;99.90
45849;DHT22;31567;54.600;9.842;2023-11-19T13:38:58;13.20;99.90
45849;DHT22;31567;54.600;9.842;2023-11-19T13:42:39;13.10;99.90
45849;DHT22;31567;54.600;9.842;2023-11-19T13:46:20;13.10;99.90
45849;DHT22;31567;54.600;9.842;2023-11-19T13:49:59;13.00;99.90
45849;DHT22;31567;54.600;9.842;2023-11-19T13:53:39;13.00;99.90
45849;DHT22;31567;54.600;9.842;2023-11-19T13:57:18;13.10;99.90
45849;DHT22;31567;54.600;9.842;2023-11-19T14:00:58;13.00;99.90
45849;DHT22;31567;54.600;9.842;2023-11-19T14:04:38;13.00;99.90
45849;DHT22;31567;54.600;9.842;2023-11-19T14:08:17;13.00;99.90
45849;DHT22;31567;54.600;9.842;2023-11-19T14:11:57;12.90;99.90
45849;DHT22;31567;54.600;9.842;2023-11-19T14:15:36;12.90;99.90
45849;DHT22;31567;54.600;9.842;2023-11-19T14:19:16;13.00;99.90
45849;DHT22;31567;54.600;9.842;2023-11-19T14:22:56;12.90;99.90
45849;DHT22;31567;54.600;9.842;2023-11-19T14:26:35;12.80;99.90
45849;DHT22;31567;54.600;9.842;2023-11-19T14:30:15;12.80;99.90
45849;DHT22;31567;54.600;9.842;2023-11-19T14:33:55;12.80;99.90
45849;DHT22;31567;54.600;9.842;2023-11-19T14:37:34;12.80;99.90
45849;DHT22;31567;54.600;9.842;2023-11-19T14:41:14;12.90;99.90
45849;DHT22;31567;54.600;9.842;2023-11-19T14:44:54;12.90;99.90
45849;DHT22;31567;54.600;9.842;2023-11-19T14:48:33;12.90;99.90
45849;DHT22;31567;54.600;9.842;2023-11-19T14:52:13;12.80;99.90
45849;DHT22;31567;54.600;9.842;2023-11-19T14:55:52;12.90;99.90
45849;DHT22;31567;54.600;9.842;2023-11-19T14:59:34;12.90;99.90
45849;DHT22;31567;54.600;9.842;2023-11-19T15:03:14;12.80;99.90
45849;DHT22;31567;54.600;9.842;2023-11-19T15:06:59;12.80;99.90
45849;DHT22;31567;54.600;9.842;2023-11-19T15:10:38;12.80;99.90
45849;DHT22;31567;54.600;9.842;2023-11-19T15:14:18;12.80;99.90
45849;DHT22;31567;54.600;9.842;2023-11-19T15:18:00;12.70;99.90
45849;DHT22;31567;54.600;9.842;2023-11-19T15:21:40;12.80;99.90
45849;DHT22;31567;54.600;9.842;2023-11-19T15:25:21;12.70;99.90
45849;DHT22;31567;54.600;9.842;2023-11-19T15:29:03;12.70;99.90
45849;DHT22;31567;54.600;9.842;2023-11-19T15:32:42;12.70;99.90
45849;DHT22;31567;54.600;9.842;2023-11-19T15:36:22;12.60;99.90
45849;DHT22;31567;54.600;9.842;2023-11-19T15:40:02;12.50;99.90
45849;DHT22;31567;54.600;9.842;2023-11-19T15:43:44;12.50;99.90
45849;DHT22;31567;54.600;9.842;2023-11-19T15:47:23;12.50;99.90
45849;DHT22;31567;54.600;9.842;2023-11-19T15:51:03;12.40;99.90
45849;DHT22;31567;54.600;9.842;2023-11-19T15:54:43;12.30;99.90
45849;DHT22;31567;54.600;9.842;2023-11-19T15:58:25;12.30;99.90
45849;DHT22;31567;54.600;9.842;2023-11-19T16:02:05;12.30;99.90
45849;DHT22;31567;54.600;9.842;2023-11-19T16:05:44;12.20;99.90
45849;DHT22;31567;54.600;9.842;2023-11-19T16:09:24;12.20;99.90
45849;DHT22;31567;54.600;9.842;2023-11-19T16:13:06;12.20;99.90
45849;DHT22;31567;54.600;9.842;2023-11-19T16:16:49;12.20;99.90
45849;DHT22;31567;54.600;9.842;2023-11-19T16:20:30;12.20;99.90
45849;DHT22;31567;54.600;9.842;2023-11-19T16:24:13;12.20;99.90
45849;DHT22;31567;54.600;9.842;2023-11-19T16:27:52;12.20;99.90
45849;DHT22;31567;54.600;9.842;2023-11-19T16:31:32;12.20;99.90
45849;DHT22;31567;54.600;9.842;2023-11-19T16:35:13;12.10;99.90
45849;DHT22;31567;54.600;9.842;2023-11-19T16:38:52;12.10;99.90
45849;DHT22;31567;54.600;9.842;2023-11-19T16:42:32;12.10;99.90
45849;DHT22;31567;54.600;9.842;2023-11-19T16:46:11;12.10;99.90
45849;DHT22;31567;54.600;9.842;2023-11-19T16:49:51;12.00;99.90
45849;DHT22;31567;54.600;9.842;2023-11-19T16:53:30;12.00;99.90
45849;DHT22;31567;54.600;9.842;2023-11-19T16:57:10;11.90;99.90
45849;DHT22;31567;54.600;9.842;2023-11-19T17:00:49;11.90;99.90
45849;DHT22;31567;54.600;9.842;2023-11-19T17:04:29;11.90;99.90
45849;DHT22;31567;54.600;9.842;2023-11-19T17:08:08;11.90;99.90
45849;DHT22;31567;54.600;9.842;2023-11-19T17:11:49;11.90;99.90
45849;DHT22;31567;54.600;9.842;2023-11-19T17:15:28;11.80;99.90
45849;DHT22;31567;54.600;9.842;2023-11-19T17:19:08;11.80;99.90
45849;DHT22;31567;54.600;9.842;2023-11-19T17:22:47;11.70;99.90
45849;DHT22;31567;54.600;9.842;2023-11-19T17:26:28;11.70;99.90
45849;DHT22;31567;54.600;9.842;2023-11-19T17:30:08;11.70;99.90
45849;DHT22;31567;54.600;9.842;2023-11-19T17:33:48;11.70;99.90
45849;DHT22;31567;54.600;9.842;2023-11-19T17:37:27;11.60;99.90
45849;DHT22;31567;54.600;9.842;2023-11-19T17:41:07;11.50;99.90
45849;DHT22;31567;54.600;9.842;2023-11-19T17:44:47;11.50;99.90
45849;DHT22;31567;54.600;9.842;2023-11-19T17:48:27;11.50;99.90
45849;DHT22;31567;54.600;9.842;2023-11-19T17:52:07;11.40;99.90
45849;DHT22;31567;54.600;9.842;2023-11-19T17:55:49;11.40;99.90
45849;DHT22;31567;54.600;9.842;2023-11-19T17:59:28;11.40;99.90
45849;DHT22;31567;54.600;9.842;2023-11-19T18:03:08;11.40;99.90
45849;DHT22;31567;54.600;9.842;2023-11-19T18:06:48;11.40;99.90
45849;DHT22;31567;54.600;9.842;2023-11-19T18:10:27;11.40;99.90
45849;DHT22;31567;54.600;9.842;2023-11-19T18:14:07;11.30;99.90
45849;DHT22;31567;54.600;9.842;2023-11-19T18:17:48;11.30;99.90
45849;DHT22;31567;54.600;9.842;2023-11-19T18:21:28;11.30;99.90
45849;DHT22;31567;54.600;9.842;2023-11-19T18:25:08;11.30;99.90
45849;DHT22;31567;54.600;9.842;2023-11-19T18:28:51;11.20;99.90
45849;DHT22;31567;54.600;9.842;2023-11-19T18:32:31;11.30;99.90
45849;DHT22;31567;54.600;9.842;2023-11-19T18:36:11;11.30;99.90
45849;DHT22;31567;54.600;9.842;2023-11-19T18:39:50;11.30;99.90
45849;DHT22;31567;54.600;9.842;2023-11-19T18:43:30;11.20;99.90
45849;DHT22;31567;54.600;9.842;2023-11-19T18:47:09;11.20;99.90
45849;DHT22;31567;54.600;9.842;2023-11-19T18:50:49;11.20;99.90
45849;DHT22;31567;54.600;9.842;2023-11-19T18:54:28;11.20;99.90
45849;DHT22;31567;54.600;9.842;2023-11-19T18:58:08;11.20;99.90
45849;DHT22;31567;54.600;9.842;2023-11-19T19:01:48;11.20;99.90
45849;DHT22;31567;54.600;9.842;2023-11-19T19:05:28;11.20;99.90
45849;DHT22;31567;54.600;9.842;2023-11-19T19:09:07;11.20;99.90
45849;DHT22;31567;54.600;9.842;2023-11-19T19:12:47;11.20;99.90
45849;DHT22;31567;54.600;9.842;2023-11-19T19:16:26;11.20;99.90
45849;DHT22;31567;54.600;9.842;2023-11-19T19:20:07;11.20;99.90
45849;DHT22;31567;54.600;9.842;2023-11-19T19:23:47;11.20;99.90
45849;DHT22;31567;54.600;9.842;2023-11-19T19:27:26;11.10;99.90
45849;DHT22;31567;54.600;9.842;2023-11-19T19:31:06;11.20;99.90
45849;DHT22;31567;54.600;9.842;2023-11-19T19:34:45;11.20;99.90
45849;DHT22;31567;54.600;9.842;2023-11-19T19:38:25;11.20;99.90
45849;DHT22;31567;54.600;9.842;2023-11-19T19:42:05;11.20;99.90
45849;DHT22;31567;54.600;9.842;2023-11-19T19:45:44;11.10;99.90
45849;DHT22;31567;54.600;9.842;2023-11-19T19:49:24;11.20;99.90
45849;DHT22;31567;54.600;9.842;2023-11-19T19:53:05;11.20;99.90
45849;DHT22;31567;54.600;9.842;2023-11-19T19:56:45;11.20;99.90
45849;DHT22;31567;54.600;9.842;2023-11-19T20:00:24;11.20;99.90
45849;DHT22;31567;54.600;9.842;2023-11-19T20:04:04;11.20;99.90
45849;DHT22;31567;54.600;9.842;2023-11-19T20:07:44;11.20;99.90
45849;DHT22;31567;54.600;9.842;2023-11-19T20:11:24;11.20;99.90
45849;DHT22;31567;54.600;9.842;2023-11-19T20:15:06;11.20;99.90
45849;DHT22;31567;54.600;9.842;2023-11-19T20:18:47;11.20;99.90
45849;DHT22;31567;54.600;9.842;2023-11-19T20:22:26;11.20;99.90
45849;DHT22;31567;54.600;9.842;2023-11-19T20:26:06;11.20;99.90
45849;DHT22;31567;54.600;9.842;2023-11-19T20:29:49;11.20;99.90
45849;DHT22;31567;54.600;9.842;2023-11-19T20:33:28;11.20;99.90
45849;DHT22;31567;54.600;9.842;2023-11-19T20:37:09;11.30;99.90
45849;DHT22;31567;54.600;9.842;2023-11-19T20:40:48;11.30;99.90
45849;DHT22;31567;54.600;9.842;2023-11-19T20:44:29;11.30;99.90
45849;DHT22;31567;54.600;9.842;2023-11-19T20:48:08;11.30;99.90
45849;DHT22;31567;54.600;9.842;2023-11-19T20:51:49;11.40;99.90
45849;DHT22;31567;54.600;9.842;2023-11-19T20:55:29;11.40;99.90
45849;DHT22;31567;54.600;9.842;2023-11-19T20:59:09;11.40;99.90
45849;DHT22;31567;54.600;9.842;2023-11-19T21:02:49;11.40;99.90
45849;DHT22;31567;54.600;9.842;2023-11-19T21:06:28;11.50;99.90
45849;DHT22;31567;54.600;9.842;2023-11-19T21:10:09;11.50;99.90
45849;DHT22;31567;54.600;9.842;2023-11-19T21:13:51;11.50;99.90
45849;DHT22;31567;54.600;9.842;2023-11-19T21:17:31;11.60;99.90
45849;DHT22;31567;54.600;9.842;2023-11-19T21:21:10;11.60;99.90
45849;DHT22;31567;54.600;9.842;2023-11-19T21:24:50;11.60;99.90
45849;DHT22;31567;54.600;9.842;2023-11-19T21:28:31;11.60;99.90
45849;DHT22;31567;54.600;9.842;2023-11-19T21:32:12;11.60;99.90
45849;DHT22;31567;54.600;9.842;2023-11-19T21:35:52;11.50;99.90
45849;DHT22;31567;54.600;9.842;2023-11-19T21:39:32;11.60;99.90
45849;DHT22;31567;54.600;9.842;2023-11-19T21:43:11;11.60;99.90
45849;DHT22;31567;54.600;9.842;2023-11-19T21:46:51;11.60;99.90
45849;DHT22;31567;54.600;9.842;2023-11-19T21:50:30;11.60;99.90
45849;DHT22;31567;54.600;9.842;2023-11-19T21:54:11;11.60;99.90
45849;DHT22;31567;54.600;9.842;2023-11-19T21:57:50;11.60;99.90
45849;DHT22;31567;54.600;9.842;2023-11-19T22:01:30;11.60;99.90
45849;DHT22;31567;54.600;9.842;2023-11-19T22:05:11;11.60;99.90
45849;DHT22;31567;54.600;9.842;2023-11-19T22:08:53;11.60;99.90
45849;DHT22;31567;54.600;9.842;2023-11-19T22:12:32;11.70;99.90
45849;DHT22;31567;54.600;9.842;2023-11-19T22:16:12;11.60;99.90
45849;DHT22;31567;54.600;9.842;2023-11-19T22:19:52;11.70;99.90
45849;DHT22;31567;54.600;9.842;2023-11-19T22:23:31;11.70;99.90
45849;DHT22;31567;54.600;9.842;2023-11-19T22:27:11;11.70;99.90
45849;DHT22;31567;54.600;9.842;2023-11-19T22:30:50;11.70;99.90
45849;DHT22;31567;54.600;9.842;2023-11-19T22:34:32;11.70;99.90
45849;DHT22;31567;54.600;9.842;2023-11-19T22:38:11;11.60;99.90
45849;DHT22;31567;54.600;9.842;2023-11-19T22:41:51;11.70;99.90
45849;DHT22;31567;54.600;9.842;2023-11-19T22:45:30;11.60;99.90
45849;DHT22;31567;54.600;9.842;2023-11-19T22:49:10;11.70;99.90
45849;DHT22;31567;54.600;9.842;2023-11-19T22:52:49;11.70;99.90
45849;DHT22;31567;54.600;9.842;2023-11-19T22:56:29;11.70;99.90
45849;DHT22;31567;54.600;9.842;2023-11-19T23:00:09;11.70;99.90
45849;DHT22;31567;54.600;9.842;2023-11-19T23:04:07;11.60;99.90
45849;DHT22;31567;54.600;9.842;2023-11-19T23:07:46;11.70;99.90
45849;DHT22;31567;54.600;9.842;2023-11-19T23:11:26;11.70;99.90
45849;DHT22;31567;54.600;9.842;2023-11-19T23:15:05;11.70;99.90
45849;DHT22;31567;54.600;9.842;2023-11-19T23:18:48;11.60;99.90
45849;DHT22;31567;54.600;9.842;2023-11-19T23:22:28;11.60;99.90
45849;DHT22;31567;54.600;9.842;2023-11-19T23:26:07;11.50;99.90
45849;DHT22;31567;54.600;9.842;2023-11-19T23:29:47;11.50;99.90